This is the latest recevied weather packets stored in our database for station/object N3SW-13. If no packets are shown the sender has not sent any weather packets the latest 10 day(s).
| Time | Temp. | Humidity | Pressure | Rain* | Wind** | Luminosity | Snow |
|---|---|---|---|---|---|---|---|
| 1777173332 | 15° C | 95% | 1009.4 hPa | 0 mm | - | - | - |
| 1777167930 | 15° C | 95% | 1009.5 hPa | 0 mm | - | - | - |
| 1777167027 | 15.56° C | 95% | 1009.6 hPa | 0 mm | - | - | - |
| 1777166126 | 15° C | 95% | 1009.6 hPa | 0 mm | - | - | - |
| 1777165224 | 15.56° C | 95% | 1009.5 hPa | 0 mm | - | - | - |
| 1777161617 | 15° C | 94% | 1008.8 hPa | 0 mm | - | - | - |
| 1777156213 | 15.56° C | 93% | 1008.4 hPa | 0 mm | - | - | - |
| 1777151709 | 16.11° C | 90% | 1008.6 hPa | 5.08 mm | - | - | - |
| 1777146303 | 18.89° C | 80% | 1007.6 hPa | 0 mm | - | - | - |
| 1777134647 | 24.44° C | 54% | 1007.6 hPa | 0 mm | - | - | - |
| 1777133756 | 23.89° C | 54% | 1007.7 hPa | 0 mm | - | - | - |
| 1777117509 | 15.56° C | 70% | 1008.2 hPa | 0 mm | - | - | - |
| 1777106746 | 17.78° C | 59% | 1007.4 hPa | 0 mm | - | - | - |
| 1777103143 | 18.33° C | 57% | 1007.2 hPa | 0 mm | - | - | - |
| 1777100441 | 17.78° C | 56% | 1007.3 hPa | 0 mm | - | - | - |
| 1777085120 | 20° C | 55% | 1008.3 hPa | 0 mm | - | - | - |
| 1777077917 | 20.56° C | 56% | 1007.3 hPa | 0 mm | - | - | - |
| 1777072514 | 22.78° C | 53% | 1007.3 hPa | 0 mm | - | - | - |
| 1777071622 | 22.78° C | 51% | 1007 hPa | 0 mm | - | - | - |
| 1777069813 | 23.33° C | 48% | 1007.1 hPa | 0 mm | - | - | - |
| 1777066208 | 23.89° C | 45% | 1007.2 hPa | 0 mm | - | - | - |
| 1777065311 | 23.89° C | 45% | 1007.2 hPa | 0 mm | - | - | - |
| 1777064407 | 24.44° C | 41% | 1007.2 hPa | 0 mm | - | - | - |
| 1777056351 | 28.89° C | 28% | 1008.2 hPa | 0 mm | - | - | - |
| 1777054543 | 28.33° C | 30% | 1008.4 hPa | 0 mm | - | - | - |
* Rain latest hour (hover to see other rain measurements)
** Current wind speed in m/s (hover to see current wind gust speed)